YMLT

Launceston Airport

Airport
ICAO code
YMLT
IATA Code
LST
Summary
ICAO Region
APAC
ICAO Territory
Location

Launceston, Tasmania

Serving
Launceston
Elevation
562 ft
Coordinates
41° 32' 43" S , 147° 12' 37" E
KCC
Metar
Observation
YMLT 091900Z AUTO 19007KT 9999 // SCT053 08/06 Q1017 RF00.0/000.0
Station
Launceston Airport
Date/Time
2022-12-09 19:00:00
Wind direction
190°
Wind speed
07 kts
Lowest cloud amount
scattered clouds
Temperature
8°C
Dew point
6°C
Humidity
87%
QNH
1017 hPa
Weather condition
n/a

Launceston Airport is a regional airport on the outskirts of Launceston, Tasmania. The airport is located in the rural area of Western Junction 15 km from Launceston city centre.

Climatology

Mild temperate oceanic climate (Köppen climate classification Cfb).

Airport map

Aerial View

SKYbrary Partners:

Safety knowledge contributed by: